ASA1466 KBOI-KSNA
Flight info
| Callsign | ASA1466 |
|---|---|
| Flight time | 1h 42m |
| Altitude | 36000 |
| Route | HYVAL REO J7 FMG/N0469F350 FRA REBRG OHSEA3 |
| Aircraft | B738/M-VGDW/C |
Departure
| Time | 2026-05-04 21:31 |
|---|---|
| Airport | Boise Air Terminal/Gowen Field (KBOI) |
Arrival
| Time | 2026-05-04 23:13 |
|---|---|
| Airport | John Wayne Orange County International Airport (KSNA) |
| Time | Latitude | Longitude | Altitude | Speed | Heading |
|---|---|---|---|---|---|
| 2026-05-04 21:05 | 43.56696 | -116.21971 | 2852 ft | 0 kts | 32° |
| 2026-05-04 21:23 | 43.56685 | -116.21980 | 2855 ft | 4 kts | 32° |
| 2026-05-04 21:23 | 43.56667 | -116.21994 | 2852 ft | 4 kts | 7° |
| 2026-05-04 21:23 | 43.56643 | -116.21988 | 2853 ft | 4 kts | 323° |
| 2026-05-04 21:23 | 43.56625 | -116.21962 | 2851 ft | 4 kts | 301° |
| 2026-05-04 21:24 | 43.56620 | -116.21949 | 2851 ft | 0 kts | 295° |
| 2026-05-04 21:26 | 43.56624 | -116.21963 | 2851 ft | 4 kts | 295° |
| 2026-05-04 21:27 | 43.56638 | -116.22039 | 2856 ft | 13 kts | 259° |
| 2026-05-04 21:27 | 43.56579 | -116.22038 | 2853 ft | 13 kts | 121° |
| 2026-05-04 21:27 | 43.56523 | -116.21873 | 2852 ft | 25 kts | 115° |
| 2026-05-04 21:27 | 43.56439 | -116.21636 | 2855 ft | 31 kts | 115° |
| 2026-05-04 21:28 | 43.56347 | -116.21360 | 2866 ft | 31 kts | 115° |
| 2026-05-04 21:28 | 43.56257 | -116.21098 | 2871 ft | 30 kts | 115° |
| 2026-05-04 21:28 | 43.56152 | -116.20872 | 2870 ft | 28 kts | 170° |
| 2026-05-04 21:28 | 43.55981 | -116.20970 | 2869 ft | 26 kts | 205° |
| 2026-05-04 21:29 | 43.55928 | -116.21118 | 2870 ft | 0 kts | 298° |
| 2026-05-04 21:29 | 43.55928 | -116.21119 | 2870 ft | 0 kts | 296° |
| 2026-05-04 21:30 | 43.55973 | -116.21252 | 2868 ft | 45 kts | 295° |
| 2026-05-04 21:30 | 43.56209 | -116.21937 | 2856 ft | 111 kts | 295° |
| 2026-05-04 21:30 | 43.56625 | -116.23129 | 2890 ft | 160 kts | 296° |
| 2026-05-04 21:30 | 43.57157 | -116.24581 | 3324 ft | 178 kts | 297° |
| 2026-05-04 21:31 | 43.58183 | -116.28023 | 4390 ft | 204 kts | 273° |
| 2026-05-04 21:31 | 43.57753 | -116.29937 | 4879 ft | 227 kts | 236° |
| 2026-05-04 21:31 | 43.56626 | -116.31604 | 5147 ft | 254 kts | 226° |
| 2026-05-04 21:32 | 43.55319 | -116.33423 | 5454 ft | 276 kts | 230° |
| 2026-05-04 21:32 | 43.53964 | -116.35386 | 6116 ft | 285 kts | 230° |
| 2026-05-04 21:32 | 43.52596 | -116.37369 | 6989 ft | 285 kts | 230° |
| 2026-05-04 21:32 | 43.51219 | -116.39361 | 7761 ft | 290 kts | 229° |
| 2026-05-04 21:33 | 43.49833 | -116.41368 | 8586 ft | 291 kts | 227° |
| 2026-05-04 21:33 | 43.48433 | -116.43384 | 9445 ft | 293 kts | 227° |
| 2026-05-04 21:33 | 43.47008 | -116.45427 | 10192 ft | 298 kts | 227° |
| 2026-05-04 21:33 | 43.45532 | -116.47546 | 10562 ft | 317 kts | 227° |
| 2026-05-04 21:34 | 43.44014 | -116.49727 | 10716 ft | 341 kts | 227° |
| 2026-05-04 21:34 | 43.42347 | -116.52118 | 10892 ft | 362 kts | 227° |
| 2026-05-04 21:34 | 43.40571 | -116.54667 | 11053 ft | 383 kts | 227° |
| 2026-05-04 21:34 | 43.38718 | -116.57319 | 11464 ft | 394 kts | 227° |
| 2026-05-04 21:35 | 43.36804 | -116.60052 | 12027 ft | 399 kts | 227° |
| 2026-05-04 21:35 | 43.34878 | -116.62798 | 12761 ft | 400 kts | 226° |
| 2026-05-04 21:35 | 43.32927 | -116.65580 | 13357 ft | 404 kts | 226° |
| 2026-05-04 21:35 | 43.30966 | -116.68371 | 13893 ft | 409 kts | 226° |
| 2026-05-04 21:36 | 43.28985 | -116.71187 | 14464 ft | 412 kts | 226° |
| 2026-05-04 21:36 | 43.26981 | -116.74039 | 14982 ft | 417 kts | 226° |
| 2026-05-04 21:36 | 43.24962 | -116.76908 | 15484 ft | 421 kts | 226° |
| 2026-05-04 21:36 | 43.22912 | -116.79816 | 16016 ft | 425 kts | 226° |
| 2026-05-04 21:37 | 43.20847 | -116.82744 | 16529 ft | 429 kts | 226° |
| 2026-05-04 21:37 | 43.18763 | -116.85697 | 17014 ft | 434 kts | 226° |
| 2026-05-04 21:37 | 43.16682 | -116.88642 | 17532 ft | 437 kts | 226° |
| 2026-05-04 21:37 | 43.14537 | -116.91673 | 18102 ft | 439 kts | 226° |
| 2026-05-04 21:38 | 43.12483 | -116.94705 | 18571 ft | 441 kts | 230° |
| 2026-05-04 21:38 | 43.10522 | -116.97985 | 18934 ft | 447 kts | 232° |
| 2026-05-04 21:38 | 43.08620 | -117.01358 | 19407 ft | 449 kts | 233° |
| 2026-05-04 21:38 | 43.06726 | -117.04770 | 19946 ft | 450 kts | 233° |
| 2026-05-04 21:39 | 43.04823 | -117.08183 | 20409 ft | 453 kts | 233° |
| 2026-05-04 21:39 | 43.02892 | -117.11609 | 20817 ft | 457 kts | 232° |
| 2026-05-04 21:39 | 43.00927 | -117.15059 | 21234 ft | 460 kts | 232° |
| 2026-05-04 21:39 | 42.98945 | -117.18514 | 21557 ft | 465 kts | 232° |
| 2026-05-04 21:40 | 42.96934 | -117.22001 | 21873 ft | 470 kts | 232° |
| 2026-05-04 21:40 | 42.94921 | -117.25481 | 22193 ft | 473 kts | 232° |
| 2026-05-04 21:40 | 42.92880 | -117.29006 | 22600 ft | 475 kts | 232° |
| 2026-05-04 21:40 | 42.90820 | -117.32558 | 22953 ft | 478 kts | 232° |
| 2026-05-04 21:41 | 42.88747 | -117.36132 | 23281 ft | 482 kts | 232° |
| 2026-05-04 21:41 | 42.86658 | -117.39728 | 23575 ft | 485 kts | 232° |
| 2026-05-04 21:41 | 42.84559 | -117.43339 | 23866 ft | 487 kts | 232° |
| 2026-05-04 21:41 | 42.82448 | -117.46967 | 24157 ft | 490 kts | 232° |
| 2026-05-04 21:42 | 42.80321 | -117.50618 | 24426 ft | 492 kts | 232° |
| 2026-05-04 21:42 | 42.78183 | -117.54283 | 24703 ft | 495 kts | 232° |
| 2026-05-04 21:42 | 42.76035 | -117.57960 | 24970 ft | 498 kts | 232° |
| 2026-05-04 21:42 | 42.73872 | -117.61659 | 25234 ft | 501 kts | 232° |
| 2026-05-04 21:43 | 42.71691 | -117.65384 | 25511 ft | 503 kts | 232° |
| 2026-05-04 21:43 | 42.69505 | -117.69113 | 25791 ft | 505 kts | 232° |
| 2026-05-04 21:43 | 42.67336 | -117.72808 | 26050 ft | 508 kts | 232° |
| 2026-05-04 21:43 | 42.65132 | -117.76561 | 26316 ft | 510 kts | 232° |
| 2026-05-04 21:44 | 42.62912 | -117.80333 | 26647 ft | 510 kts | 231° |
| 2026-05-04 21:44 | 42.60565 | -117.83954 | 26949 ft | 511 kts | 223° |
| 2026-05-04 21:44 | 42.57837 | -117.87056 | 27282 ft | 511 kts | 214° |
| 2026-05-04 21:44 | 42.54827 | -117.89605 | 27654 ft | 509 kts | 205° |
| 2026-05-04 21:45 | 42.51617 | -117.91601 | 28031 ft | 507 kts | 202° |
| 2026-05-04 21:45 | 42.48381 | -117.93519 | 28379 ft | 507 kts | 202° |
| 2026-05-04 21:45 | 42.46236 | -117.94786 | 28592 ft | 508 kts | 202° |
| 2026-05-04 21:45 | 42.42997 | -117.96711 | 28936 ft | 508 kts | 202° |
| 2026-05-04 21:46 | 42.39760 | -117.98653 | 29326 ft | 508 kts | 201° |
| 2026-05-04 21:46 | 42.36539 | -118.00603 | 29739 ft | 507 kts | 201° |
| 2026-05-04 21:46 | 42.32282 | -118.03193 | 30184 ft | 506 kts | 202° |
| 2026-05-04 21:46 | 42.30115 | -118.04515 | 30390 ft | 506 kts | 202° |
| 2026-05-04 21:47 | 42.26906 | -118.06471 | 30731 ft | 505 kts | 201° |
| 2026-05-04 21:47 | 42.23697 | -118.08427 | 31082 ft | 504 kts | 201° |
| 2026-05-04 21:47 | 42.20543 | -118.10345 | 31401 ft | 503 kts | 201° |
| 2026-05-04 21:47 | 42.17354 | -118.12282 | 31723 ft | 502 kts | 201° |
| 2026-05-04 21:48 | 42.14167 | -118.14214 | 32117 ft | 500 kts | 201° |
| 2026-05-04 21:48 | 42.11010 | -118.16126 | 32511 ft | 497 kts | 201° |
| 2026-05-04 21:48 | 42.07852 | -118.18037 | 32834 ft | 497 kts | 201° |
| 2026-05-04 21:48 | 42.04700 | -118.19940 | 33162 ft | 496 kts | 201° |
| 2026-05-04 21:49 | 42.01555 | -118.21837 | 33504 ft | 494 kts | 201° |
| 2026-05-04 21:49 | 41.98421 | -118.23726 | 33791 ft | 494 kts | 201° |
| 2026-05-04 21:49 | 41.95294 | -118.25607 | 33775 ft | 497 kts | 201° |
| 2026-05-04 21:50 | 41.89014 | -118.29383 | 33789 ft | 490 kts | 201° |
| 2026-05-04 21:50 | 41.82854 | -118.33080 | 33793 ft | 487 kts | 201° |
| 2026-05-04 21:51 | 41.76668 | -118.36782 | 33772 ft | 486 kts | 201° |
| 2026-05-04 21:51 | 41.70485 | -118.40474 | 33777 ft | 486 kts | 201° |
| 2026-05-04 21:52 | 41.64298 | -118.44162 | 33773 ft | 486 kts | 201° |
| 2026-05-04 21:52 | 41.58107 | -118.47844 | 33770 ft | 488 kts | 201° |
| 2026-05-04 21:53 | 41.51897 | -118.51527 | 33766 ft | 496 kts | 201° |
| 2026-05-04 21:53 | 41.45537 | -118.55292 | 33772 ft | 501 kts | 201° |
| 2026-05-04 21:54 | 41.39141 | -118.59073 | 33756 ft | 504 kts | 201° |
| 2026-05-04 21:54 | 41.32736 | -118.62853 | 33741 ft | 502 kts | 201° |
| 2026-05-04 21:55 | 41.26350 | -118.66613 | 33766 ft | 502 kts | 200° |
| 2026-05-04 21:55 | 41.19958 | -118.70365 | 33751 ft | 502 kts | 200° |
| 2026-05-04 21:56 | 41.13559 | -118.74115 | 33747 ft | 502 kts | 200° |
| 2026-05-04 21:56 | 41.07208 | -118.77828 | 33741 ft | 502 kts | 200° |
| 2026-05-04 21:57 | 41.00811 | -118.81561 | 33743 ft | 502 kts | 200° |
| 2026-05-04 21:57 | 40.94400 | -118.85293 | 33741 ft | 502 kts | 200° |
| 2026-05-04 21:58 | 40.87992 | -118.89016 | 33733 ft | 503 kts | 200° |
| 2026-05-04 21:58 | 40.81586 | -118.92730 | 33747 ft | 503 kts | 200° |
| 2026-05-04 21:59 | 40.75171 | -118.96441 | 33746 ft | 503 kts | 200° |
| 2026-05-04 21:59 | 40.68779 | -119.00131 | 33752 ft | 504 kts | 200° |
| 2026-05-04 22:00 | 40.62337 | -119.03844 | 33761 ft | 505 kts | 200° |
| 2026-05-04 22:00 | 40.55902 | -119.07544 | 33777 ft | 503 kts | 200° |
| 2026-05-04 22:01 | 40.49559 | -119.11182 | 33764 ft | 500 kts | 200° |
| 2026-05-04 22:01 | 40.43212 | -119.14812 | 33771 ft | 500 kts | 200° |
| 2026-05-04 22:02 | 40.37373 | -119.18146 | 33772 ft | 500 kts | 200° |
| 2026-05-04 22:02 | 40.31025 | -119.21764 | 33779 ft | 500 kts | 200° |
| 2026-05-04 22:03 | 40.24648 | -119.25392 | 33787 ft | 499 kts | 200° |
| 2026-05-04 22:03 | 40.18299 | -119.28997 | 33777 ft | 501 kts | 200° |
| 2026-05-04 22:04 | 40.11913 | -119.32616 | 33808 ft | 501 kts | 200° |
| 2026-05-04 22:04 | 40.05524 | -119.36228 | 33797 ft | 503 kts | 200° |
| 2026-05-04 22:05 | 39.99095 | -119.39856 | 33799 ft | 504 kts | 200° |
| 2026-05-04 22:05 | 39.92649 | -119.43486 | 33783 ft | 504 kts | 200° |
| 2026-05-04 22:06 | 39.86224 | -119.47098 | 33808 ft | 501 kts | 200° |
| 2026-05-04 22:06 | 39.79858 | -119.50670 | 33820 ft | 497 kts | 200° |
| 2026-05-04 22:07 | 39.73502 | -119.54227 | 33865 ft | 497 kts | 200° |
| 2026-05-04 22:07 | 39.67167 | -119.57765 | 33880 ft | 499 kts | 200° |
| 2026-05-04 22:08 | 39.60787 | -119.61324 | 33903 ft | 496 kts | 200° |
| 2026-05-04 22:08 | 39.54387 | -119.64572 | 33911 ft | 491 kts | 191° |
| 2026-05-04 22:09 | 39.47680 | -119.65636 | 33922 ft | 483 kts | 175° |
| 2026-05-04 22:09 | 39.40960 | -119.65388 | 33923 ft | 481 kts | 175° |
| 2026-05-04 22:10 | 39.34326 | -119.65138 | 33937 ft | 479 kts | 175° |
| 2026-05-04 22:10 | 39.27644 | -119.64936 | 33977 ft | 480 kts | 176° |
| 2026-05-04 22:11 | 39.20962 | -119.64761 | 33977 ft | 480 kts | 176° |
| 2026-05-04 22:11 | 39.14472 | -119.64598 | 33980 ft | 480 kts | 176° |
| 2026-05-04 22:12 | 39.07789 | -119.64428 | 33971 ft | 480 kts | 176° |
| 2026-05-04 22:12 | 39.01109 | -119.64257 | 33990 ft | 480 kts | 177° |
| 2026-05-04 22:13 | 38.94476 | -119.64087 | 33977 ft | 480 kts | 177° |
| 2026-05-04 22:13 | 38.87784 | -119.63916 | 33960 ft | 480 kts | 177° |
| 2026-05-04 22:14 | 38.81101 | -119.63746 | 33933 ft | 480 kts | 177° |
| 2026-05-04 22:14 | 38.74438 | -119.63576 | 33900 ft | 480 kts | 177° |
| 2026-05-04 22:15 | 38.67896 | -119.63410 | 33884 ft | 480 kts | 177° |
| 2026-05-04 22:15 | 38.61230 | -119.63241 | 33893 ft | 477 kts | 178° |
| 2026-05-04 22:16 | 38.54868 | -119.63218 | 33905 ft | 474 kts | 179° |
| 2026-05-04 22:16 | 38.48277 | -119.63378 | 33922 ft | 474 kts | 180° |
| 2026-05-04 22:17 | 38.41693 | -119.63529 | 33936 ft | 472 kts | 181° |
| 2026-05-04 22:17 | 38.35168 | -119.63658 | 33927 ft | 466 kts | 180° |
| 2026-05-04 22:18 | 38.28713 | -119.63769 | 33959 ft | 467 kts | 180° |
| 2026-05-04 22:18 | 38.22321 | -119.63874 | 33965 ft | 467 kts | 181° |
| 2026-05-04 22:19 | 38.16129 | -119.63977 | 33976 ft | 467 kts | 181° |
| 2026-05-04 22:19 | 38.09838 | -119.64083 | 33980 ft | 467 kts | 181° |
| 2026-05-04 22:20 | 38.03332 | -119.64193 | 33984 ft | 468 kts | 181° |
| 2026-05-04 22:20 | 37.96854 | -119.64300 | 33992 ft | 462 kts | 182° |
| 2026-05-04 22:21 | 37.90420 | -119.64407 | 34015 ft | 463 kts | 182° |
| 2026-05-04 22:21 | 37.84006 | -119.64515 | 34015 ft | 463 kts | 182° |
| 2026-05-04 22:22 | 37.77575 | -119.64620 | 34005 ft | 458 kts | 183° |
| 2026-05-04 22:22 | 37.71226 | -119.64725 | 34034 ft | 455 kts | 183° |
| 2026-05-04 22:23 | 37.64874 | -119.64832 | 34045 ft | 456 kts | 183° |
| 2026-05-04 22:23 | 37.58566 | -119.64936 | 34029 ft | 453 kts | 184° |
| 2026-05-04 22:24 | 37.52286 | -119.65038 | 34024 ft | 450 kts | 184° |
| 2026-05-04 22:24 | 37.46036 | -119.65143 | 34038 ft | 450 kts | 184° |
| 2026-05-04 22:25 | 37.39789 | -119.65247 | 34038 ft | 450 kts | 185° |
| 2026-05-04 22:25 | 37.33599 | -119.65346 | 34029 ft | 445 kts | 185° |
| 2026-05-04 22:26 | 37.27419 | -119.65448 | 34041 ft | 445 kts | 185° |
| 2026-05-04 22:26 | 37.21222 | -119.65551 | 34049 ft | 445 kts | 185° |
| 2026-05-04 22:27 | 37.15181 | -119.65648 | 34036 ft | 440 kts | 186° |
| 2026-05-04 22:27 | 37.09168 | -119.65744 | 34041 ft | 437 kts | 186° |
| 2026-05-04 22:28 | 37.03079 | -119.65845 | 34052 ft | 438 kts | 186° |
| 2026-05-04 22:28 | 36.96982 | -119.65946 | 34032 ft | 436 kts | 187° |
| 2026-05-04 22:29 | 36.91020 | -119.66038 | 34042 ft | 426 kts | 187° |
| 2026-05-04 22:29 | 36.88047 | -119.66087 | 33836 ft | 430 kts | 187° |
| 2026-05-04 22:29 | 36.85029 | -119.66140 | 33564 ft | 433 kts | 187° |
| 2026-05-04 22:29 | 36.81997 | -119.66193 | 33244 ft | 435 kts | 187° |
| 2026-05-04 22:30 | 36.78999 | -119.66242 | 33098 ft | 434 kts | 186° |
| 2026-05-04 22:30 | 36.72989 | -119.66339 | 33060 ft | 436 kts | 186° |
| 2026-05-04 22:31 | 36.66925 | -119.66435 | 33054 ft | 436 kts | 186° |
| 2026-05-04 22:31 | 36.60900 | -119.66532 | 33053 ft | 436 kts | 186° |
| 2026-05-04 22:32 | 36.54828 | -119.66630 | 33031 ft | 435 kts | 187° |
| 2026-05-04 22:32 | 36.48828 | -119.66723 | 33047 ft | 428 kts | 187° |
| 2026-05-04 22:33 | 36.42874 | -119.66819 | 33063 ft | 428 kts | 187° |
| 2026-05-04 22:33 | 36.36891 | -119.66918 | 33057 ft | 430 kts | 187° |
| 2026-05-04 22:34 | 36.30952 | -119.67011 | 33047 ft | 427 kts | 188° |
| 2026-05-04 22:34 | 36.25041 | -119.67102 | 33052 ft | 422 kts | 188° |
| 2026-05-04 22:35 | 36.19153 | -119.67199 | 33058 ft | 424 kts | 188° |
| 2026-05-04 22:35 | 36.13250 | -119.67295 | 33053 ft | 425 kts | 188° |
| 2026-05-04 22:36 | 36.08435 | -119.67369 | 33028 ft | 420 kts | 188° |
| 2026-05-04 22:36 | 36.02672 | -119.67456 | 33026 ft | 412 kts | 188° |
| 2026-05-04 22:37 | 35.96984 | -119.67549 | 33027 ft | 411 kts | 188° |
| 2026-05-04 22:37 | 35.91266 | -119.67643 | 33021 ft | 410 kts | 188° |
| 2026-05-04 22:38 | 35.85588 | -119.67734 | 33027 ft | 411 kts | 188° |
| 2026-05-04 22:38 | 35.79864 | -119.67825 | 33017 ft | 411 kts | 188° |
| 2026-05-04 22:39 | 35.74122 | -119.67915 | 33010 ft | 412 kts | 188° |
| 2026-05-04 22:39 | 35.68431 | -119.67866 | 32980 ft | 418 kts | 182° |
| 2026-05-04 22:40 | 35.62753 | -119.66350 | 33002 ft | 434 kts | 171° |
| 2026-05-04 22:40 | 35.57265 | -119.63422 | 33007 ft | 442 kts | 166° |
| 2026-05-04 22:41 | 35.51664 | -119.60263 | 33003 ft | 443 kts | 166° |
| 2026-05-04 22:41 | 35.46153 | -119.57183 | 32999 ft | 439 kts | 166° |
| 2026-05-04 22:42 | 35.40592 | -119.54108 | 33005 ft | 437 kts | 166° |
| 2026-05-04 22:42 | 35.35016 | -119.51049 | 32999 ft | 442 kts | 166° |
| 2026-05-04 22:43 | 35.29376 | -119.47956 | 32982 ft | 445 kts | 165° |
| 2026-05-04 22:43 | 35.23756 | -119.44871 | 32998 ft | 445 kts | 165° |
| 2026-05-04 22:44 | 35.18085 | -119.41763 | 32989 ft | 445 kts | 166° |
| 2026-05-04 22:44 | 35.12432 | -119.38671 | 33000 ft | 445 kts | 166° |
| 2026-05-04 22:45 | 35.06854 | -119.35624 | 32982 ft | 443 kts | 166° |
| 2026-05-04 22:45 | 34.98382 | -119.31007 | 32994 ft | 440 kts | 166° |
| 2026-05-04 22:46 | 34.92870 | -119.28009 | 33001 ft | 439 kts | 166° |
| 2026-05-04 22:46 | 34.87317 | -119.24998 | 33014 ft | 438 kts | 166° |
| 2026-05-04 22:47 | 34.84528 | -119.23492 | 32791 ft | 439 kts | 167° |
| 2026-05-04 22:47 | 34.81745 | -119.21979 | 32373 ft | 437 kts | 167° |
| 2026-05-04 22:47 | 34.78973 | -119.20471 | 31824 ft | 433 kts | 167° |
| 2026-05-04 22:47 | 34.76222 | -119.18979 | 31327 ft | 433 kts | 167° |
| 2026-05-04 22:48 | 34.73483 | -119.17486 | 31121 ft | 431 kts | 166° |
| 2026-05-04 22:48 | 34.70775 | -119.15859 | 30874 ft | 437 kts | 164° |
| 2026-05-04 22:48 | 34.68076 | -119.14138 | 30236 ft | 437 kts | 163° |
| 2026-05-04 22:48 | 34.65503 | -119.12445 | 29452 ft | 429 kts | 163° |
| 2026-05-04 22:49 | 34.62896 | -119.10744 | 28621 ft | 420 kts | 163° |
| 2026-05-04 22:49 | 34.60347 | -119.09112 | 28186 ft | 404 kts | 164° |
| 2026-05-04 22:49 | 34.57917 | -119.07556 | 27943 ft | 386 kts | 165° |
| 2026-05-04 22:49 | 34.55540 | -119.06070 | 27539 ft | 389 kts | 163° |
| 2026-05-04 22:50 | 34.53135 | -119.04533 | 27125 ft | 403 kts | 163° |
| 2026-05-04 22:50 | 34.50618 | -119.02897 | 26665 ft | 417 kts | 162° |
| 2026-05-04 22:50 | 34.48059 | -119.01220 | 26141 ft | 413 kts | 162° |
| 2026-05-04 22:50 | 34.45578 | -118.99600 | 25674 ft | 400 kts | 162° |
| 2026-05-04 22:51 | 34.43170 | -118.98021 | 25245 ft | 388 kts | 162° |
| 2026-05-04 22:51 | 34.40834 | -118.96476 | 24831 ft | 379 kts | 162° |
| 2026-05-04 22:51 | 34.38507 | -118.94934 | 24403 ft | 385 kts | 162° |
| 2026-05-04 22:51 | 34.36122 | -118.93359 | 23985 ft | 394 kts | 161° |
| 2026-05-04 22:52 | 34.33709 | -118.91761 | 23515 ft | 395 kts | 161° |
| 2026-05-04 22:52 | 34.31317 | -118.90165 | 23002 ft | 389 kts | 160° |
| 2026-05-04 22:52 | 34.28960 | -118.88594 | 22514 ft | 383 kts | 160° |
| 2026-05-04 22:52 | 34.26638 | -118.87054 | 22088 ft | 379 kts | 160° |
| 2026-05-04 22:53 | 34.24339 | -118.85533 | 21654 ft | 375 kts | 160° |
| 2026-05-04 22:53 | 34.22018 | -118.84160 | 21232 ft | 365 kts | 167° |
| 2026-05-04 22:53 | 34.19661 | -118.83200 | 20835 ft | 360 kts | 170° |
| 2026-05-04 22:53 | 34.17275 | -118.82302 | 20437 ft | 359 kts | 170° |
| 2026-05-04 22:54 | 34.14879 | -118.81395 | 20031 ft | 360 kts | 169° |
| 2026-05-04 22:54 | 34.12498 | -118.80471 | 19640 ft | 361 kts | 168° |
| 2026-05-04 22:54 | 34.10111 | -118.79531 | 19212 ft | 360 kts | 168° |
| 2026-05-04 22:54 | 34.07730 | -118.78590 | 18807 ft | 360 kts | 167° |
| 2026-05-04 22:55 | 34.05346 | -118.77657 | 18404 ft | 360 kts | 167° |
| 2026-05-04 22:55 | 34.02964 | -118.76734 | 17965 ft | 359 kts | 167° |
| 2026-05-04 22:55 | 34.00587 | -118.75816 | 17469 ft | 356 kts | 167° |
| 2026-05-04 22:55 | 33.98250 | -118.74911 | 17044 ft | 349 kts | 167° |
| 2026-05-04 22:56 | 33.95944 | -118.74019 | 16640 ft | 347 kts | 167° |
| 2026-05-04 22:56 | 33.93639 | -118.73129 | 16252 ft | 348 kts | 167° |
| 2026-05-04 22:56 | 33.91338 | -118.72241 | 15854 ft | 348 kts | 167° |
| 2026-05-04 22:56 | 33.89026 | -118.71348 | 15466 ft | 348 kts | 166° |
| 2026-05-04 22:57 | 33.86731 | -118.70463 | 15100 ft | 348 kts | 166° |
| 2026-05-04 22:57 | 33.84537 | -118.69616 | 14710 ft | 346 kts | 166° |
| 2026-05-04 22:57 | 33.82255 | -118.68735 | 14296 ft | 341 kts | 166° |
| 2026-05-04 22:57 | 33.80038 | -118.67879 | 13930 ft | 338 kts | 166° |
| 2026-05-04 22:58 | 33.77797 | -118.67016 | 13515 ft | 338 kts | 166° |
| 2026-05-04 22:58 | 33.75563 | -118.66157 | 13100 ft | 337 kts | 166° |
| 2026-05-04 22:58 | 33.73331 | -118.65318 | 12743 ft | 334 kts | 167° |
| 2026-05-04 22:58 | 33.71122 | -118.64536 | 12441 ft | 328 kts | 167° |
| 2026-05-04 22:59 | 33.68929 | -118.63773 | 12184 ft | 328 kts | 167° |
| 2026-05-04 22:59 | 33.66737 | -118.63007 | 11935 ft | 328 kts | 167° |
| 2026-05-04 22:59 | 33.64548 | -118.62238 | 11682 ft | 327 kts | 167° |
| 2026-05-04 22:59 | 33.62390 | -118.61476 | 11369 ft | 318 kts | 167° |
| 2026-05-04 23:00 | 33.60369 | -118.60577 | 11048 ft | 314 kts | 155° |
| 2026-05-04 23:00 | 33.58708 | -118.58895 | 10703 ft | 315 kts | 131° |
| 2026-05-04 23:00 | 33.57502 | -118.56715 | 10385 ft | 311 kts | 125° |
| 2026-05-04 23:00 | 33.56374 | -118.54524 | 10014 ft | 305 kts | 125° |
| 2026-05-04 23:01 | 33.55284 | -118.52427 | 9918 ft | 287 kts | 126° |
| 2026-05-04 23:01 | 33.54208 | -118.50390 | 9375 ft | 288 kts | 126° |
| 2026-05-04 23:01 | 33.53134 | -118.48378 | 9064 ft | 287 kts | 126° |
| 2026-05-04 23:01 | 33.52220 | -118.46238 | 8681 ft | 292 kts | 105° |
| 2026-05-04 23:02 | 33.52048 | -118.43816 | 8404 ft | 292 kts | 92° |
| 2026-05-04 23:02 | 33.52010 | -118.41386 | 8066 ft | 292 kts | 92° |
| 2026-05-04 23:02 | 33.51965 | -118.39052 | 7759 ft | 291 kts | 93° |
| 2026-05-04 23:02 | 33.51907 | -118.36592 | 7427 ft | 291 kts | 92° |
| 2026-05-04 23:03 | 33.51848 | -118.34180 | 7116 ft | 291 kts | 91° |
| 2026-05-04 23:03 | 33.52156 | -118.31919 | 7040 ft | 283 kts | 69° |
| 2026-05-04 23:03 | 33.52869 | -118.29768 | 6988 ft | 283 kts | 70° |
| 2026-05-04 23:03 | 33.53608 | -118.27650 | 6979 ft | 282 kts | 63° |
| 2026-05-04 23:04 | 33.54461 | -118.25489 | 6811 ft | 290 kts | 69° |
| 2026-05-04 23:04 | 33.55056 | -118.23161 | 6594 ft | 292 kts | 78° |
| 2026-05-04 23:04 | 33.55298 | -118.20849 | 6552 ft | 283 kts | 83° |
| 2026-05-04 23:04 | 33.55872 | -118.18753 | 6429 ft | 277 kts | 58° |
| 2026-05-04 23:05 | 33.56932 | -118.16890 | 6244 ft | 275 kts | 53° |
| 2026-05-04 23:05 | 33.57984 | -118.15060 | 6061 ft | 274 kts | 55° |
| 2026-05-04 23:05 | 33.59027 | -118.13219 | 5990 ft | 268 kts | 54° |
| 2026-05-04 23:05 | 33.60078 | -118.11376 | 5867 ft | 267 kts | 54° |
| 2026-05-04 23:06 | 33.61129 | -118.09549 | 5759 ft | 264 kts | 53° |
| 2026-05-04 23:06 | 33.62179 | -118.07720 | 5706 ft | 269 kts | 54° |
| 2026-05-04 23:06 | 33.63206 | -118.05925 | 5613 ft | 276 kts | 53° |
| 2026-05-04 23:06 | 33.64275 | -118.04052 | 5494 ft | 278 kts | 54° |
| 2026-05-04 23:07 | 33.65348 | -118.02171 | 5398 ft | 275 kts | 53° |
| 2026-05-04 23:07 | 33.66402 | -118.00325 | 5313 ft | 275 kts | 54° |
| 2026-05-04 23:07 | 33.67475 | -117.98442 | 5186 ft | 270 kts | 54° |
| 2026-05-04 23:07 | 33.68479 | -117.96678 | 5083 ft | 258 kts | 54° |
| 2026-05-04 23:08 | 33.69457 | -117.95004 | 4969 ft | 246 kts | 48° |
| 2026-05-04 23:08 | 33.70807 | -117.93833 | 4777 ft | 233 kts | 22° |
| 2026-05-04 23:08 | 33.72259 | -117.92955 | 4449 ft | 241 kts | 25° |
| 2026-05-04 23:08 | 33.73739 | -117.92028 | 4146 ft | 239 kts | 24° |
| 2026-05-04 23:09 | 33.75212 | -117.91107 | 3808 ft | 238 kts | 25° |
| 2026-05-04 23:09 | 33.76677 | -117.90191 | 3523 ft | 238 kts | 25° |
| 2026-05-04 23:09 | 33.78112 | -117.89198 | 3230 ft | 238 kts | 38° |
| 2026-05-04 23:09 | 33.79090 | -117.87706 | 2900 ft | 234 kts | 69° |
| 2026-05-04 23:10 | 33.79335 | -117.86058 | 2650 ft | 223 kts | 96° |
| 2026-05-04 23:10 | 33.78904 | -117.84342 | 2387 ft | 208 kts | 125° |
| 2026-05-04 23:10 | 33.78027 | -117.83150 | 2237 ft | 182 kts | 147° |
| 2026-05-04 23:10 | 33.76992 | -117.82430 | 2019 ft | 163 kts | 166° |
| 2026-05-04 23:11 | 33.75925 | -117.82178 | 1722 ft | 150 kts | 183° |
| 2026-05-04 23:11 | 33.74944 | -117.82381 | 1583 ft | 141 kts | 205° |
| 2026-05-04 23:11 | 33.74055 | -117.82834 | 1387 ft | 138 kts | 203° |
| 2026-05-04 23:11 | 33.73190 | -117.83311 | 1184 ft | 134 kts | 208° |
| 2026-05-04 23:12 | 33.72348 | -117.83843 | 1007 ft | 141 kts | 210° |
| 2026-05-04 23:12 | 33.71500 | -117.84379 | 794 ft | 135 kts | 212° |
| 2026-05-04 23:12 | 33.70657 | -117.84919 | 619 ft | 140 kts | 209° |
| 2026-05-04 23:12 | 33.69830 | -117.85441 | 454 ft | 131 kts | 212° |
| 2026-05-04 23:13 | 33.69012 | -117.85961 | 250 ft | 133 kts | 209° |
| 2026-05-04 23:13 | 33.68225 | -117.86468 | 94 ft | 124 kts | 212° |
| 2026-05-04 23:13 | 33.67706 | -117.86804 | 59 ft | 102 kts | 210° |
| 2026-05-04 23:13 | 33.67367 | -117.87018 | 54 ft | 29 kts | 207° |
| 2026-05-04 23:14 | 33.67178 | -117.87140 | 53 ft | 37 kts | 209° |
| 2026-05-04 23:14 | 33.66960 | -117.87206 | 62 ft | 3 kts | 154° |
| 2026-05-04 23:14 | 33.66953 | -117.87202 | 61 ft | 3 kts | 153° |
| 2026-05-04 23:14 | 33.66945 | -117.87195 | 60 ft | 0 kts | 144° |
| 2026-05-04 23:15 | 33.66925 | -117.87167 | 60 ft | 12 kts | 128° |
| 2026-05-04 23:15 | 33.66962 | -117.87042 | 55 ft | 25 kts | 42° |
| 2026-05-04 23:16 | 33.67122 | -117.86878 | 53 ft | 35 kts | 40° |
| 2026-05-04 23:16 | 33.67326 | -117.86711 | 57 ft | 36 kts | 40° |
| 2026-05-04 23:16 | 33.67546 | -117.86564 | 58 ft | 37 kts | 30° |
| 2026-05-04 23:16 | 33.67715 | -117.86425 | 55 ft | 6 kts | 87° |
| 2026-05-04 23:17 | 33.67713 | -117.86411 | 55 ft | 1 kts | 92° |
| 2026-05-04 23:17 | 33.67718 | -117.86386 | 55 ft | 7 kts | 80° |
| 2026-05-04 23:17 | 33.67717 | -117.86372 | 55 ft | 0 kts | 115° |